createdAt,value
2023-01-23T00:01:11.417Z,25.17
2023-01-23T00:03:17.361Z,27.10
2023-01-23T00:05:22.469Z,25.33
2023-01-23T00:07:27.815Z,25.30
2023-01-23T00:09:36.460Z,24.67
2023-01-23T00:11:41.687Z,24.50
2023-01-23T00:13:46.765Z,24.90
2023-01-23T00:15:52.326Z,25.40
2023-01-23T00:17:58.531Z,25.17
2023-01-23T00:20:04.680Z,23.55
2023-01-23T00:22:09.628Z,22.13
2023-01-23T00:24:16.384Z,22.73
2023-01-23T00:26:27.566Z,24.27
2023-01-23T00:28:32.994Z,22.83
2023-01-23T00:30:39.444Z,21.63
2023-01-23T00:32:44.624Z,22.80
2023-01-23T00:34:50.086Z,21.58
2023-01-23T00:36:55.670Z,23.55
2023-01-23T00:39:01.969Z,20.35
2023-01-23T00:41:08.033Z,22.20
2023-01-23T00:43:15.474Z,23.27
2023-01-23T00:45:21.258Z,22.10
2023-01-23T00:47:26.182Z,20.38
2023-01-23T00:49:32.117Z,22.00
2023-01-23T00:51:37.639Z,24.10
2023-01-23T00:53:43.140Z,22.75
2023-01-23T00:55:48.706Z,22.05
2023-01-23T00:57:54.344Z,19.73
2023-01-23T01:00:01.784Z,20.30
2023-01-23T01:02:07.535Z,22.30
2023-01-23T01:04:13.074Z,22.92
2023-01-23T01:06:19.116Z,23.85
2023-01-23T01:08:24.000Z,22.35
2023-01-23T01:10:31.694Z,21.88
2023-01-23T01:12:36.848Z,22.73
2023-01-23T01:14:41.857Z,24.73
2023-01-23T01:16:49.325Z,21.38
2023-01-23T01:18:54.659Z,21.80
2023-01-23T01:21:00.158Z,19.58
2023-01-23T01:23:06.226Z,20.98
2023-01-23T01:25:12.423Z,25.50
2023-01-23T01:27:17.372Z,25.15
2023-01-23T01:29:22.276Z,22.13
2023-01-23T01:31:27.705Z,22.35
2023-01-23T01:33:36.442Z,23.13
2023-01-23T01:35:43.793Z,24.75
2023-01-23T01:37:49.329Z,27.85
2023-01-23T01:39:54.211Z,29.05
2023-01-23T01:41:59.264Z,29.23
2023-01-23T01:44:04.271Z,31.65
2023-01-23T01:46:32.336Z,30.42
2023-01-23T01:48:50.209Z,26.50
2023-01-23T01:50:56.626Z,27.30
2023-01-23T01:53:01.746Z,30.20
2023-01-23T01:55:09.839Z,30.27
2023-01-23T01:57:19.678Z,27.83
2023-01-23T01:59:28.466Z,31.27
2023-01-23T02:01:34.103Z,28.45
2023-01-23T02:03:46.404Z,30.15
2023-01-23T02:05:53.412Z,27.13
2023-01-23T02:08:05.125Z,29.45
2023-01-23T02:10:13.758Z,28.45
2023-01-23T02:12:21.254Z,25.67
2023-01-23T02:14:26.302Z,27.15
2023-01-23T02:16:40.266Z,29.30
2023-01-23T02:18:53.795Z,29.45
2023-01-23T02:21:02.381Z,25.92
2023-01-23T02:23:16.176Z,24.60
2023-01-23T02:25:29.551Z,27.30
2023-01-23T02:27:37.764Z,23.17
2023-01-23T02:29:48.407Z,24.05
2023-01-23T02:31:56.259Z,21.80
2023-01-23T02:34:03.543Z,22.98
2023-01-23T02:36:11.392Z,21.98
2023-01-23T02:38:16.553Z,25.10
2023-01-23T02:40:22.556Z,19.42
2023-01-23T02:42:28.726Z,21.55
2023-01-23T02:44:36.346Z,19.15
2023-01-23T02:46:42.985Z,19.23
2023-01-23T02:48:48.895Z,19.38
2023-01-23T02:50:54.181Z,20.75
2023-01-23T02:52:59.712Z,20.25
2023-01-23T02:55:06.277Z,18.95
2023-01-23T02:57:11.680Z,18.55
2023-01-23T02:59:30.575Z,20.02
2023-01-23T03:01:39.139Z,18.95
2023-01-23T03:03:44.450Z,17.92
2023-01-23T03:05:50.481Z,21.38
2023-01-23T03:07:55.604Z,16.75
2023-01-23T03:10:01.376Z,15.55
2023-01-23T03:12:07.703Z,17.27
2023-01-23T03:14:16.445Z,15.07
2023-01-23T03:16:21.453Z,15.30
2023-01-23T03:18:31.335Z,17.08
2023-01-23T03:20:41.615Z,14.80
2023-01-23T03:22:46.942Z,12.05
2023-01-23T03:24:52.020Z,15.60
2023-01-23T03:26:57.364Z,14.90
2023-01-23T03:29:28.272Z,14.70
2023-01-23T03:31:34.027Z,14.10
2023-01-23T03:33:43.493Z,14.27
2023-01-23T03:35:49.874Z,13.15
2023-01-23T03:37:54.882Z,12.40
2023-01-23T03:40:12.442Z,14.50
2023-01-23T03:42:15.122Z,13.10
2023-01-23T03:46:27.549Z,14.63
2023-01-23T03:48:32.422Z,12.88
2023-01-23T03:50:42.378Z,12.48
2023-01-23T03:52:48.606Z,12.65
2023-01-23T03:54:53.501Z,11.73
2023-01-23T03:56:58.443Z,11.05
2023-01-23T03:59:23.318Z,12.75
2023-01-23T04:01:28.669Z,11.82
2023-01-23T04:03:34.249Z,11.57
2023-01-23T04:05:41.713Z,12.63
2023-01-23T04:07:47.020Z,12.57
2023-01-23T04:09:52.385Z,13.38
2023-01-23T04:11:57.626Z,12.00
2023-01-23T04:14:03.921Z,10.73
2023-01-23T04:16:10.265Z,11.68
2023-01-23T04:18:15.207Z,12.18
2023-01-23T04:20:21.208Z,12.15
2023-01-23T04:22:28.952Z,12.93
2023-01-23T04:24:34.110Z,13.60
2023-01-23T04:26:39.038Z,11.48
2023-01-23T04:28:44.458Z,14.13
2023-01-23T04:30:50.057Z,12.05
2023-01-23T04:33:01.630Z,12.57
2023-01-23T04:35:07.925Z,13.25
2023-01-23T04:37:15.506Z,13.65
2023-01-23T04:39:23.075Z,14.48
2023-01-23T04:41:31.969Z,14.55
2023-01-23T04:43:45.301Z,14.30
2023-01-23T04:45:53.076Z,14.77
2023-01-23T04:48:30.560Z,13.88
2023-01-23T04:50:36.698Z,15.63
2023-01-23T04:52:41.623Z,14.30
2023-01-23T04:54:49.249Z,11.95
2023-01-23T04:56:54.335Z,13.27
2023-01-23T04:58:59.535Z,13.70
2023-01-23T05:01:05.889Z,13.38
2023-01-23T05:03:12.419Z,15.00
2023-01-23T05:05:22.111Z,14.35
2023-01-23T05:07:29.837Z,15.65
2023-01-23T05:09:53.663Z,15.50
2023-01-23T05:11:59.857Z,16.08
2023-01-23T05:14:07.206Z,17.00
2023-01-23T05:16:12.862Z,16.55
2023-01-23T05:18:37.854Z,16.42
2023-01-23T05:20:42.843Z,16.25
2023-01-23T05:22:55.502Z,18.20
2023-01-23T05:25:12.466Z,17.25
2023-01-23T05:27:17.505Z,19.13
2023-01-23T05:29:26.004Z,18.85
2023-01-23T05:31:39.065Z,17.13
2023-01-23T05:34:07.334Z,20.30
2023-01-23T05:36:18.733Z,18.80
2023-01-23T05:38:23.923Z,19.15
2023-01-23T05:40:31.386Z,17.35
2023-01-23T05:42:52.226Z,20.02
2023-01-23T05:45:18.657Z,19.00
2023-01-23T05:47:23.920Z,16.67
2023-01-23T05:49:29.161Z,21.52
2023-01-23T05:51:35.341Z,20.52
2023-01-23T05:53:40.232Z,18.63
2023-01-23T05:55:48.475Z,17.85
2023-01-23T05:57:54.218Z,16.90
2023-01-23T06:00:20.538Z,18.25
2023-01-23T06:02:49.344Z,21.83
2023-01-23T06:05:24.930Z,21.02
2023-01-23T06:07:38.881Z,20.75
2023-01-23T06:09:46.862Z,22.25
2023-01-23T06:11:54.747Z,20.77
2023-01-23T06:14:00.580Z,18.58
2023-01-23T06:16:06.219Z,20.05
2023-01-23T06:18:11.985Z,19.25
2023-01-23T06:20:19.850Z,20.33
2023-01-23T06:22:24.961Z,18.20
2023-01-23T06:24:39.851Z,17.52
2023-01-23T06:26:44.729Z,18.92
2023-01-23T06:28:52.907Z,21.17
2023-01-23T06:31:04.669Z,21.92
2023-01-23T06:33:21.748Z,20.87
2023-01-23T06:35:27.784Z,22.50
2023-01-23T06:37:33.604Z,21.42
2023-01-23T06:39:38.913Z,20.88
2023-01-23T06:41:45.839Z,22.73
2023-01-23T06:44:00.875Z,22.77
2023-01-23T06:46:07.338Z,20.00
2023-01-23T06:48:12.313Z,20.83
2023-01-23T06:50:20.673Z,20.63
2023-01-23T06:52:25.759Z,19.52
2023-01-23T06:54:31.740Z,23.98
2023-01-23T06:56:40.308Z,21.35
2023-01-23T06:58:48.803Z,20.58
2023-01-23T07:01:10.819Z,21.63
2023-01-23T07:03:41.475Z,20.30
2023-01-23T07:05:46.681Z,24.85
2023-01-23T07:07:51.546Z,22.52
2023-01-23T07:09:56.719Z,20.60
2023-01-23T07:12:03.585Z,21.05
2023-01-23T07:14:10.108Z,21.38
2023-01-23T07:16:19.039Z,24.30
2023-01-23T07:18:25.871Z,22.70
2023-01-23T07:20:31.897Z,22.67
2023-01-23T07:22:38.329Z,20.48
2023-01-23T07:24:43.459Z,24.45
2023-01-23T07:26:48.866Z,25.08
2023-01-23T07:28:54.481Z,22.45
2023-01-23T07:31:01.425Z,23.75
2023-01-23T07:33:09.781Z,21.90
2023-01-23T07:35:15.511Z,23.50
2023-01-23T07:37:21.264Z,21.55
2023-01-23T07:39:27.004Z,20.48
2023-01-23T07:41:32.709Z,21.73
2023-01-23T07:43:41.705Z,22.45
2023-01-23T07:45:47.428Z,20.92
2023-01-23T07:47:53.077Z,22.63
2023-01-23T07:50:00.548Z,23.77
2023-01-23T07:52:07.346Z,22.38
2023-01-23T07:54:13.097Z,23.50
2023-01-23T07:56:19.638Z,22.02
2023-01-23T07:58:24.927Z,19.67
2023-01-23T08:00:30.585Z,19.75
2023-01-23T08:02:37.524Z,20.05
2023-01-23T08:04:43.040Z,18.90
2023-01-23T08:06:50.565Z,19.48
2023-01-23T08:08:55.610Z,19.05
2023-01-23T08:11:00.650Z,19.25
2023-01-23T08:13:05.537Z,16.38
2023-01-23T08:15:13.017Z,17.83
2023-01-23T08:17:18.142Z,17.17
2023-01-23T08:19:25.650Z,17.65
2023-01-23T08:21:30.622Z,16.48
2023-01-23T08:23:39.150Z,16.73
2023-01-23T08:25:50.016Z,16.27
2023-01-23T08:27:56.233Z,15.02
2023-01-23T08:30:01.187Z,18.20
2023-01-23T08:32:06.240Z,16.58
2023-01-23T08:34:11.175Z,17.55
2023-01-23T08:36:17.019Z,15.63
2023-01-23T08:38:22.450Z,16.25
2023-01-23T08:40:30.310Z,17.60
2023-01-23T08:42:35.531Z,16.83
2023-01-23T08:44:40.920Z,17.27
2023-01-23T08:46:45.808Z,17.00
2023-01-23T08:48:50.704Z,19.23
2023-01-23T08:51:02.719Z,16.08
2023-01-23T08:53:08.098Z,18.67
2023-01-23T08:55:15.050Z,18.48
2023-01-23T08:57:22.559Z,19.73
2023-01-23T08:59:28.952Z,17.17
2023-01-23T09:01:33.819Z,17.58
2023-01-23T09:03:38.737Z,15.75
2023-01-23T09:05:43.919Z,19.02
2023-01-23T09:07:49.676Z,20.27
2023-01-23T09:09:55.068Z,18.10
2023-01-23T09:12:00.674Z,18.55
2023-01-23T09:14:08.140Z,19.17
2023-01-23T09:16:14.083Z,15.70
2023-01-23T09:18:18.989Z,17.88
2023-01-23T09:20:26.132Z,17.65
2023-01-23T09:22:31.009Z,18.05
2023-01-23T09:24:36.373Z,15.38
2023-01-23T09:26:43.896Z,14.98
2023-01-23T09:28:48.804Z,16.02
2023-01-23T09:30:56.361Z,16.75
2023-01-23T09:33:01.558Z,15.32
2023-01-23T09:35:07.161Z,16.85
2023-01-23T09:37:12.112Z,16.38
2023-01-23T09:39:18.027Z,16.58
2023-01-23T09:41:28.442Z,18.33
2023-01-23T09:43:44.392Z,16.13
2023-01-23T09:46:03.594Z,15.85
2023-01-23T09:48:23.257Z,17.50
2023-01-23T09:50:33.660Z,16.08
2023-01-23T09:52:46.041Z,14.77
2023-01-23T09:54:55.686Z,17.35
2023-01-23T09:57:05.379Z,14.70
2023-01-23T09:59:20.343Z,15.27
2023-01-23T10:01:32.798Z,16.17
2023-01-23T10:03:37.785Z,17.95
2023-01-23T10:05:59.959Z,16.95
2023-01-23T10:08:22.116Z,15.98
2023-01-23T10:10:55.624Z,18.25
2023-01-23T10:13:09.276Z,19.33
2023-01-23T10:15:28.118Z,14.93
2023-01-23T10:17:44.517Z,15.48
2023-01-23T10:20:20.081Z,15.38
2023-01-23T10:22:37.298Z,17.00
2023-01-23T10:24:52.108Z,14.07
2023-01-23T10:27:01.162Z,15.35
2023-01-23T10:29:16.883Z,16.40
2023-01-23T10:31:36.065Z,14.80
2023-01-23T10:33:51.020Z,17.13
2023-01-23T10:36:01.637Z,15.93
2023-01-23T10:38:21.248Z,15.15
2023-01-23T10:40:41.031Z,14.40
2023-01-23T10:42:46.264Z,15.48
2023-01-23T10:44:53.946Z,16.95
2023-01-23T10:47:03.952Z,14.05
2023-01-23T10:49:11.405Z,15.90
2023-01-23T10:51:37.622Z,15.13
2023-01-23T10:53:43.055Z,15.88
2023-01-23T10:55:49.272Z,18.30
2023-01-23T10:58:02.556Z,13.82
2023-01-23T11:02:32.097Z,13.23
2023-01-23T11:04:42.014Z,15.85
2023-01-23T11:06:47.300Z,15.35
2023-01-23T11:09:00.264Z,17.67
2023-01-23T11:11:25.983Z,18.00
2023-01-23T11:13:33.641Z,18.38
2023-01-23T11:15:43.832Z,16.35
2023-01-23T11:17:49.210Z,16.73
2023-01-23T11:19:59.821Z,16.45
2023-01-23T11:22:07.218Z,15.35
2023-01-23T11:24:27.780Z,15.27
2023-01-23T11:26:40.986Z,15.63
2023-01-23T11:28:52.240Z,15.10
2023-01-23T11:31:13.737Z,13.93
2023-01-23T11:33:37.023Z,15.43
2023-01-23T11:36:09.150Z,20.33
2023-01-23T11:38:27.254Z,16.77
2023-01-23T11:40:38.320Z,15.75
2023-01-23T11:42:45.568Z,14.27
2023-01-23T11:44:51.425Z,14.82
2023-01-23T11:47:35.529Z,16.25
2023-01-23T11:52:26.606Z,15.68
2023-01-23T11:54:57.833Z,16.63
2023-01-23T11:57:14.581Z,14.30
2023-01-23T12:00:02.167Z,15.18
2023-01-23T12:02:41.036Z,14.20
2023-01-23T12:05:11.065Z,15.23
2023-01-23T12:07:24.133Z,13.98
2023-01-23T12:09:38.079Z,14.70
2023-01-23T12:11:58.553Z,13.88
2023-01-23T12:14:16.162Z,12.85
2023-01-23T12:16:31.301Z,12.18
2023-01-23T12:18:50.768Z,13.63
2023-01-23T12:21:06.165Z,13.95
2023-01-23T12:23:29.751Z,12.65
2023-01-23T12:25:39.292Z,14.32
2023-01-23T12:27:46.488Z,14.07
2023-01-23T12:30:29.582Z,13.40
2023-01-23T12:32:49.984Z,11.67
2023-01-23T12:35:13.499Z,14.13
2023-01-23T12:37:38.468Z,13.52
2023-01-23T12:40:03.571Z,13.93
2023-01-23T12:42:15.998Z,12.63
2023-01-23T12:44:30.500Z,11.55
2023-01-23T12:46:46.868Z,16.40
2023-01-23T12:49:01.516Z,13.02
2023-01-23T12:51:14.637Z,11.90
2023-01-23T12:53:22.256Z,11.38
2023-01-23T12:55:38.236Z,12.68
2023-01-23T12:57:59.594Z,13.45
2023-01-23T13:00:33.792Z,13.45
2023-01-23T13:02:48.169Z,13.93
2023-01-23T13:05:09.339Z,11.98
2023-01-23T13:07:31.956Z,14.50
2023-01-23T13:09:52.342Z,8.67
2023-01-23T13:12:12.007Z,11.93
2023-01-23T13:14:32.880Z,11.70
2023-01-23T13:16:50.878Z,12.60
2023-01-23T13:19:10.771Z,11.75
2023-01-23T13:21:28.705Z,11.77
2023-01-23T13:23:35.609Z,11.35
2023-01-23T13:25:38.328Z,13.27
2023-01-23T13:27:52.872Z,11.68
2023-01-23T13:29:59.687Z,11.77
2023-01-23T13:32:25.315Z,15.07
2023-01-23T13:34:42.765Z,11.45
2023-01-23T13:36:49.423Z,10.30
2023-01-23T13:39:31.872Z,12.80
2023-01-23T13:41:37.723Z,11.07
2023-01-23T13:43:55.830Z,11.68
2023-01-23T13:46:01.095Z,10.48
2023-01-23T14:22:25.015Z,18.60
2023-01-23T14:24:43.709Z,16.48
2023-01-23T14:26:53.941Z,12.23
2023-01-23T14:29:01.650Z,12.88
2023-01-23T14:31:09.991Z,13.77
2023-01-23T14:33:20.934Z,10.20
2023-01-23T14:35:28.976Z,11.50
2023-01-23T14:37:38.830Z,13.93
2023-01-23T14:39:53.655Z,14.13
2023-01-23T14:42:05.393Z,15.63
2023-01-23T14:44:21.909Z,14.45
2023-01-23T14:46:40.143Z,12.40
2023-01-23T14:48:53.718Z,13.32
2023-01-23T14:51:20.080Z,11.32
2023-01-23T14:53:25.495Z,12.88
2023-01-23T14:55:32.880Z,15.27
2023-01-23T14:57:39.183Z,14.27
2023-01-23T14:59:46.934Z,12.93
2023-01-23T15:01:57.420Z,15.43
2023-01-23T15:04:10.049Z,14.45
2023-01-23T15:06:21.672Z,22.42
2023-01-23T15:08:34.384Z,20.45
2023-01-23T15:10:51.482Z,19.35
2023-01-23T15:13:02.441Z,21.70
2023-01-23T15:15:09.483Z,18.70
2023-01-23T15:17:20.978Z,23.92
2023-01-23T15:19:29.607Z,19.42
2023-01-23T15:21:40.033Z,20.80
2023-01-23T15:24:19.444Z,21.75
2023-01-23T15:26:35.848Z,22.48
2023-01-23T15:28:51.499Z,20.70
2023-01-23T15:30:56.739Z,25.27
2023-01-23T15:33:07.294Z,19.80
2023-01-23T15:35:20.281Z,25.52
2023-01-23T15:39:38.009Z,23.15
2023-01-23T15:41:47.068Z,25.58
2023-01-23T15:43:52.321Z,24.73
2023-01-23T15:45:57.528Z,26.73
2023-01-23T15:48:03.071Z,28.02
2023-01-23T15:50:09.459Z,26.50
2023-01-23T15:52:25.128Z,24.67
2023-01-23T15:54:36.190Z,26.50
2023-01-23T15:56:48.839Z,27.75
2023-01-23T15:59:00.665Z,28.27
2023-01-23T16:01:05.837Z,30.42
2023-01-23T16:03:14.587Z,26.92
2023-01-23T16:05:19.757Z,31.80
2023-01-23T16:07:34.425Z,29.33
2023-01-23T16:09:42.252Z,33.08
2023-01-23T16:11:47.336Z,28.30
2023-01-23T16:13:52.235Z,30.10
2023-01-23T16:15:57.174Z,29.40
2023-01-23T16:18:04.975Z,29.23
2023-01-23T16:20:15.820Z,29.38
2023-01-23T16:22:29.694Z,30.92
2023-01-23T16:24:39.383Z,30.88
2023-01-23T16:26:44.716Z,28.85
2023-01-23T16:28:49.942Z,35.45
2023-01-23T16:30:55.720Z,33.40
2023-01-23T16:33:00.707Z,29.65
2023-01-23T16:35:06.080Z,29.35
2023-01-23T16:37:17.823Z,35.20
2023-01-23T16:39:29.814Z,30.13
2023-01-23T16:41:34.665Z,30.55
2023-01-23T16:43:40.310Z,31.60
2023-01-23T16:45:45.209Z,33.53
2023-01-23T16:47:50.214Z,31.17
2023-01-23T16:49:55.052Z,31.77
2023-01-23T16:52:03.145Z,33.67
2023-01-23T16:54:18.329Z,34.60
2023-01-23T16:56:33.065Z,36.40
2023-01-23T16:58:42.363Z,37.92
2023-01-23T17:00:47.955Z,34.03
2023-01-23T17:02:57.405Z,38.83
2023-01-23T17:05:02.733Z,39.78
2023-01-23T17:07:15.102Z,38.20
2023-01-23T17:09:20.140Z,32.38
2023-01-23T17:11:33.732Z,38.42
2023-01-23T17:13:38.919Z,33.85
2023-01-23T17:15:44.348Z,40.03
2023-01-23T17:17:51.284Z,36.47
2023-01-23T17:19:57.572Z,35.00
2023-01-23T17:22:05.270Z,38.13
2023-01-23T17:24:17.102Z,38.95
2023-01-23T17:26:23.883Z,39.75
2023-01-23T17:28:31.729Z,38.00
2023-01-23T17:30:36.789Z,37.67
2023-01-23T17:32:41.751Z,38.00
2023-01-23T17:34:50.145Z,38.75
2023-01-23T17:36:57.060Z,37.05
2023-01-23T17:39:02.593Z,36.40
2023-01-23T17:41:11.787Z,36.90
2023-01-23T17:43:17.334Z,39.20
2023-01-23T17:45:27.491Z,32.08
2023-01-23T17:47:34.793Z,34.83
2023-01-23T17:49:40.067Z,37.78
2023-01-23T17:51:45.403Z,37.00
2023-01-23T17:53:51.070Z,34.75
2023-01-23T17:55:56.278Z,35.47
2023-01-23T17:58:02.099Z,34.20
2023-01-23T18:00:08.894Z,30.70
2023-01-23T18:02:30.944Z,28.38
2023-01-23T18:04:36.031Z,29.80
2023-01-23T18:06:41.004Z,29.35
2023-01-23T18:08:46.004Z,31.40
2023-01-23T18:10:56.674Z,26.67
2023-01-23T18:13:14.413Z,27.52
2023-01-23T18:15:29.179Z,29.48
2023-01-23T18:17:44.809Z,27.10
2023-01-23T18:19:51.625Z,25.35
2023-01-23T18:21:59.424Z,28.85
2023-01-23T18:24:05.328Z,29.92
2023-01-23T18:26:27.504Z,30.50
2023-01-23T18:28:42.752Z,28.42
2023-01-23T18:30:58.200Z,25.88
2023-01-23T18:33:23.411Z,26.20
2023-01-23T18:35:39.634Z,27.48
2023-01-23T18:37:54.409Z,27.65
2023-01-23T18:40:06.045Z,24.73
2023-01-23T18:42:23.798Z,25.67
2023-01-23T18:44:30.173Z,23.95
2023-01-23T18:46:35.813Z,28.08
2023-01-23T18:48:45.789Z,28.35
2023-01-23T18:51:08.670Z,26.40
2023-01-23T18:53:28.434Z,26.90
2023-01-23T18:55:40.998Z,25.92
2023-01-23T18:58:08.923Z,24.48
2023-01-23T19:00:20.887Z,26.33
2023-01-23T19:02:34.785Z,25.35
2023-01-23T19:04:53.877Z,25.13
2023-01-23T19:07:00.423Z,23.02
2023-01-23T19:09:06.194Z,24.73
2023-01-23T19:11:26.439Z,23.80
2023-01-23T19:13:43.645Z,21.35
2023-01-23T19:16:01.173Z,25.23
2023-01-23T19:18:38.612Z,23.35
2023-01-23T19:20:53.376Z,24.13
2023-01-23T19:23:13.430Z,21.98
2023-01-23T19:25:20.862Z,19.77
2023-01-23T19:27:28.358Z,22.58
2023-01-23T19:29:34.290Z,22.15
2023-01-23T19:31:43.713Z,21.35
2023-01-23T19:33:50.294Z,23.85
2023-01-23T19:35:58.014Z,21.55
2023-01-23T19:38:02.909Z,20.15
2023-01-23T19:40:11.002Z,22.95
2023-01-23T19:42:17.249Z,19.27
2023-01-23T19:44:24.899Z,20.65
2023-01-23T19:46:33.530Z,25.38
2023-01-23T19:48:38.419Z,22.17
2023-01-23T19:50:44.105Z,23.25
2023-01-23T19:52:52.559Z,22.80
2023-01-23T19:54:57.426Z,19.70
2023-01-23T19:57:02.648Z,21.42
2023-01-23T19:59:08.399Z,23.05
2023-01-23T20:01:25.722Z,21.23
2023-01-23T20:03:30.873Z,19.58
2023-01-23T20:05:35.918Z,21.13
2023-01-23T20:07:41.400Z,20.73
2023-01-23T20:09:49.665Z,23.80
2023-01-23T20:11:54.876Z,22.83
2023-01-23T20:14:00.328Z,22.70
2023-01-23T20:16:11.453Z,22.58
2023-01-23T20:18:16.312Z,23.73
2023-01-23T20:20:22.163Z,21.55
2023-01-23T20:22:32.097Z,20.23
2023-01-23T20:24:37.127Z,21.52
2023-01-23T20:26:45.453Z,22.48
2023-01-23T20:28:50.530Z,21.23
2023-01-23T20:30:55.533Z,24.60
2023-01-23T20:33:00.874Z,22.10
2023-01-23T20:35:06.311Z,22.33
2023-01-23T20:37:11.267Z,23.35
2023-01-23T20:39:16.715Z,21.70
2023-01-23T20:41:23.647Z,23.92
2023-01-23T20:43:31.126Z,22.38
2023-01-23T20:45:36.043Z,22.98
2023-01-23T20:47:41.348Z,23.10
2023-01-23T20:49:46.427Z,21.35
2023-01-23T20:51:51.329Z,17.83
2023-01-23T20:53:53.711Z,23.95
2023-01-23T20:58:18.303Z,25.40
2023-01-23T21:00:26.023Z,21.77
2023-01-23T21:02:34.045Z,23.88
2023-01-23T21:04:40.536Z,21.08
2023-01-23T21:06:45.445Z,22.85
2023-01-23T21:08:50.531Z,23.50
2023-01-23T21:10:55.515Z,22.15
2023-01-23T21:13:00.412Z,21.25
2023-01-23T21:15:05.303Z,20.38
2023-01-23T21:17:12.908Z,24.10
2023-01-23T21:19:18.455Z,21.95
2023-01-23T21:21:25.568Z,21.40
2023-01-23T21:23:30.603Z,23.90
2023-01-23T21:25:38.610Z,24.42
2023-01-23T21:27:43.503Z,24.60
2023-01-23T21:29:48.724Z,24.55
2023-01-23T21:31:53.710Z,22.33
2023-01-23T21:34:02.744Z,24.90
2023-01-23T21:36:08.961Z,23.58
2023-01-23T21:38:13.889Z,24.05
2023-01-23T21:40:19.243Z,25.55
2023-01-23T21:42:24.154Z,22.15
2023-01-23T21:44:29.048Z,23.60
2023-01-23T21:46:33.998Z,20.48
2023-01-23T21:48:39.677Z,23.45
2023-01-23T21:50:47.175Z,23.25
2023-01-23T21:52:52.163Z,21.67
2023-01-23T21:54:57.062Z,21.80
2023-01-23T21:57:01.951Z,20.20
2023-01-23T21:59:07.039Z,19.92
2023-01-23T22:01:28.782Z,22.48
2023-01-23T22:03:37.123Z,21.98
2023-01-23T22:05:42.044Z,22.05
2023-01-23T22:07:50.222Z,20.40
2023-01-23T22:09:55.803Z,23.02
2023-01-23T22:12:00.745Z,23.30
2023-01-23T22:14:06.675Z,23.73
2023-01-23T22:16:14.213Z,22.63
2023-01-23T22:18:19.207Z,26.58
2023-01-23T22:20:24.092Z,24.67
2023-01-23T22:22:29.012Z,26.48
2023-01-23T22:24:36.498Z,24.90
2023-01-23T22:26:41.409Z,22.58
2023-01-23T22:28:46.604Z,22.73
2023-01-23T22:30:52.144Z,23.67
2023-01-23T22:32:57.038Z,24.30
2023-01-23T22:35:01.972Z,23.00
2023-01-23T22:37:07.928Z,25.98
2023-01-23T22:39:16.478Z,23.38
2023-01-23T22:41:24.476Z,24.17
2023-01-23T22:43:30.023Z,22.05
2023-01-23T22:45:35.082Z,20.55
2023-01-23T22:47:40.031Z,22.73
2023-01-23T22:49:45.528Z,22.77
2023-01-23T22:51:51.541Z,23.73
2023-01-23T22:53:58.545Z,21.98
2023-01-23T22:56:08.739Z,22.08
2023-01-23T22:58:16.253Z,22.58
2023-01-23T23:00:22.032Z,24.25
2023-01-23T23:02:27.536Z,23.33
2023-01-23T23:04:32.548Z,19.75
2023-01-23T23:06:37.490Z,22.00
2023-01-23T23:08:44.660Z,22.52
2023-01-23T23:13:06.798Z,21.20
2023-01-23T23:15:17.712Z,22.40
2023-01-23T23:17:22.701Z,21.20
2023-01-23T23:19:28.171Z,19.95
2023-01-23T23:21:37.098Z,21.40
2023-01-23T23:23:42.504Z,21.02
2023-01-23T23:25:49.588Z,21.67
2023-01-23T23:27:54.461Z,22.02
2023-01-23T23:29:59.336Z,22.77
2023-01-23T23:32:07.762Z,23.20
2023-01-23T23:34:12.834Z,23.08
2023-01-23T23:36:17.756Z,24.52
2023-01-23T23:38:23.226Z,20.38
2023-01-23T23:40:28.461Z,23.02
2023-01-23T23:42:33.514Z,23.52
2023-01-23T23:44:38.467Z,21.48
2023-01-23T23:46:44.248Z,20.80
2023-01-23T23:48:51.740Z,22.75
2023-01-23T23:50:56.967Z,22.23
2023-01-23T23:53:02.176Z,22.52
2023-01-23T23:55:08.319Z,22.58
2023-01-23T23:57:13.751Z,22.23
2023-01-23T23:59:20.114Z,24.02
